createdAt,value
2018-07-01T00:04:16.917Z,20.90
2018-07-01T00:09:11.602Z,20.80
2018-07-01T00:14:06.407Z,20.50
2018-07-01T00:19:01.042Z,20.60
2018-07-01T00:23:57.664Z,20.50
2018-07-01T00:28:52.851Z,20.50
2018-07-01T00:33:47.542Z,20.50
2018-07-01T00:38:42.292Z,20.30
2018-07-01T00:43:37.072Z,20.20
2018-07-01T00:48:31.789Z,19.90
2018-07-01T00:53:26.535Z,19.70
2018-07-01T00:58:21.175Z,19.70
2018-07-01T01:03:15.908Z,19.80
2018-07-01T01:08:10.507Z,19.70
2018-07-01T01:13:05.618Z,19.70
2018-07-01T01:18:23.235Z,19.60
2018-07-01T01:23:18.558Z,19.50
2018-07-01T01:28:13.208Z,19.50
2018-07-01T01:33:07.948Z,19.50
2018-07-01T01:38:03.390Z,19.60
2018-07-01T01:43:02.187Z,19.80
2018-07-01T01:48:02.439Z,19.90
2018-07-01T01:53:05.563Z,19.80
2018-07-01T01:58:08.361Z,19.50
2018-07-01T02:03:35.934Z,19.60
2018-07-01T02:08:35.788Z,19.50
2018-07-01T02:13:33.167Z,19.60
2018-07-01T02:18:27.947Z,19.40
2018-07-01T02:23:36.184Z,19.30
2018-07-01T02:28:31.720Z,19.00
2018-07-01T02:33:26.569Z,18.80
2018-07-01T02:38:21.657Z,18.70
2018-07-01T02:43:16.802Z,18.70
2018-07-01T02:48:37.448Z,18.60
2018-07-01T02:53:32.463Z,18.60
2018-07-01T02:58:27.368Z,18.70
2018-07-01T03:03:22.192Z,18.70
2018-07-01T03:08:17.902Z,18.60
2018-07-01T03:13:12.716Z,18.60
2018-07-01T03:18:08.368Z,18.50
2018-07-01T03:23:03.378Z,18.50
2018-07-01T03:27:58.295Z,18.30
2018-07-01T03:32:54.259Z,18.30
2018-07-01T03:43:05.665Z,18.20
2018-07-01T03:48:01.667Z,18.20
2018-07-01T03:52:56.781Z,18.30
2018-07-01T03:57:54.057Z,18.30
2018-07-01T04:02:49.177Z,18.30
2018-07-01T04:07:44.407Z,18.40
2018-07-01T04:12:41.485Z,18.30
2018-07-01T04:17:36.588Z,18.30
2018-07-01T04:22:31.652Z,18.30
2018-07-01T04:27:26.628Z,18.20
2018-07-01T04:32:22.819Z,18.10
2018-07-01T04:37:18.840Z,18.10
2018-07-01T04:42:13.771Z,18.00
2018-07-01T04:47:08.768Z,18.20
2018-07-01T04:52:04.014Z,18.30
2018-07-01T04:56:59.184Z,18.50
2018-07-01T05:01:54.388Z,18.80
2018-07-01T05:06:49.430Z,19.10
2018-07-01T05:11:44.758Z,19.30
2018-07-01T05:17:30.073Z,19.70
2018-07-01T05:22:26.263Z,19.90
2018-07-01T05:27:21.648Z,20.10
2018-07-01T05:32:16.789Z,20.00
2018-07-01T05:37:12.073Z,20.00
2018-07-01T05:42:07.643Z,20.00
2018-07-01T05:47:08.421Z,20.20
2018-07-01T05:52:03.059Z,20.00
2018-07-01T05:56:57.793Z,20.20
2018-07-01T06:01:54.478Z,20.30
2018-07-01T06:06:49.146Z,20.20
2018-07-01T06:11:44.007Z,20.00
2018-07-01T06:16:38.804Z,19.70
2018-07-01T06:21:33.459Z,19.60
2018-07-01T06:26:33.761Z,19.80
2018-07-01T06:31:29.654Z,20.00
2018-07-01T06:36:24.439Z,20.10
2018-07-01T06:41:19.174Z,20.00
2018-07-01T06:46:13.935Z,19.90
2018-07-01T06:51:09.165Z,19.90
2018-07-01T06:56:04.262Z,20.30
2018-07-01T07:00:59.261Z,20.30
2018-07-01T07:06:01.135Z,20.60
2018-07-01T07:11:13.066Z,20.80
2018-07-01T07:16:10.947Z,21.20
2018-07-01T07:21:31.147Z,21.70
2018-07-01T07:26:53.095Z,21.90
2018-07-01T07:31:48.105Z,22.10
2018-07-01T07:36:43.498Z,21.90
2018-07-01T07:41:38.755Z,22.10
2018-07-01T07:51:30.082Z,22.20
2018-07-01T07:56:24.993Z,22.50
2018-07-01T08:01:21.434Z,22.90
2018-07-01T08:06:16.202Z,23.10
2018-07-01T08:11:10.844Z,23.10
2018-07-01T08:16:07.694Z,23.20
2018-07-01T08:21:02.451Z,24.00
2018-07-01T08:25:59.236Z,24.60
2018-07-01T08:30:54.167Z,24.50
2018-07-01T08:35:49.280Z,24.80
2018-07-01T08:41:46.471Z,24.90
2018-07-01T08:46:42.942Z,24.80
2018-07-01T08:51:37.777Z,24.60
2018-07-01T09:01:31.456Z,25.10
2018-07-01T09:06:26.207Z,25.30
2018-07-01T09:11:21.946Z,25.40
2018-07-01T09:16:16.818Z,25.30
2018-07-01T09:21:11.443Z,25.50
2018-07-01T09:26:06.276Z,25.70
2018-07-01T09:31:01.182Z,25.90
2018-07-01T09:36:59.176Z,25.90
2018-07-01T09:41:56.709Z,26.10
2018-07-01T09:46:55.564Z,26.60
2018-07-01T09:52:28.630Z,26.80
2018-07-01T09:57:23.414Z,26.70
2018-07-01T10:02:20.401Z,26.70
2018-07-01T10:07:47.212Z,27.00
2018-07-01T10:17:58.023Z,27.70
2018-07-01T10:22:53.121Z,27.50
2018-07-01T10:27:48.211Z,27.40
2018-07-01T10:33:06.990Z,27.50
2018-07-01T10:38:01.674Z,27.60
2018-07-01T10:42:56.358Z,27.70
2018-07-01T10:52:45.572Z,27.60
2018-07-01T10:57:40.347Z,27.50
2018-07-01T11:02:40.671Z,27.50
2018-07-01T11:07:35.384Z,27.60
2018-07-01T11:12:30.180Z,28.10
2018-07-01T11:17:24.900Z,27.80
2018-07-01T11:22:19.779Z,27.80
2018-07-01T11:27:14.739Z,28.30
2018-07-01T11:32:09.679Z,28.60
2018-07-01T11:37:20.193Z,28.90
2018-07-01T11:42:15.101Z,29.30
2018-07-01T11:47:10.000Z,29.00
2018-07-01T11:52:28.675Z,28.90
2018-07-01T12:02:17.932Z,28.90
2018-07-01T12:07:12.679Z,28.90
2018-07-01T12:12:08.319Z,29.00
2018-07-01T12:17:03.101Z,29.10
2018-07-01T12:21:58.100Z,29.10
2018-07-01T12:27:18.590Z,29.20
2018-07-01T12:32:13.945Z,28.80
2018-07-01T12:37:09.302Z,29.00
2018-07-01T12:42:04.776Z,28.70
2018-07-01T12:46:59.901Z,28.40
2018-07-01T12:51:54.989Z,28.50
2018-07-01T12:56:50.062Z,28.40
2018-07-01T13:01:46.134Z,28.30
2018-07-01T13:06:41.794Z,28.40
2018-07-01T13:11:37.627Z,28.10
2018-07-01T13:16:33.167Z,28.20
2018-07-01T13:21:28.723Z,28.40
2018-07-01T13:26:23.631Z,28.30
2018-07-01T13:31:18.731Z,28.10
2018-07-01T13:36:13.492Z,28.00
2018-07-01T13:42:04.189Z,27.90
2018-07-01T13:46:59.644Z,28.00
2018-07-01T13:51:57.092Z,27.90
2018-07-01T13:56:53.118Z,27.80
2018-07-01T14:02:34.145Z,27.80
2018-07-01T14:12:50.087Z,27.70
2018-07-01T14:17:44.867Z,27.70
2018-07-01T14:22:39.963Z,27.70
2018-07-01T14:27:40.709Z,27.80
2018-07-01T14:32:35.490Z,27.80
2018-07-01T14:37:30.283Z,27.80
2018-07-01T14:42:25.132Z,27.90
2018-07-01T14:47:20.117Z,27.80
2018-07-01T14:52:17.141Z,27.90
2018-07-01T14:57:13.322Z,27.80
2018-07-01T15:10:32.236Z,27.70
2018-07-01T15:15:27.121Z,27.60
2018-07-01T15:20:24.956Z,27.70
2018-07-01T15:25:20.082Z,27.70
2018-07-01T15:30:15.001Z,27.70
2018-07-01T15:35:09.975Z,27.70
2018-07-01T15:40:07.539Z,27.60
2018-07-01T15:45:03.169Z,27.60
2018-07-01T15:49:58.071Z,27.60
2018-07-01T15:54:53.616Z,27.50
2018-07-01T15:59:48.744Z,27.50
2018-07-01T16:04:45.412Z,27.40
2018-07-01T16:09:46.388Z,27.40
2018-07-01T16:14:44.454Z,27.40
2018-07-01T16:19:42.954Z,27.40
2018-07-01T16:43:49.061Z,27.30
2018-07-01T16:48:45.701Z,27.10
2018-07-01T16:53:41.768Z,26.90
2018-07-01T16:58:58.675Z,26.70
2018-07-01T17:03:53.462Z,26.80
2018-07-01T17:08:48.236Z,26.70
2018-07-01T17:13:50.917Z,26.60
2018-07-01T17:18:46.360Z,26.50
2018-07-01T17:29:19.650Z,26.60
2018-07-01T17:34:14.536Z,26.70
2018-07-01T17:39:10.254Z,26.60
2018-07-01T17:49:33.381Z,26.10
2018-07-01T17:54:28.432Z,25.90
2018-07-01T17:59:23.246Z,25.80
2018-07-01T18:04:18.319Z,25.90
2018-07-01T18:09:13.258Z,25.60
2018-07-01T18:14:10.202Z,25.50
2018-07-01T18:19:05.323Z,25.30
2018-07-01T18:24:27.534Z,25.20
2018-07-01T18:29:05.474Z,25.20
2018-07-01T18:33:51.069Z,25.00
2018-07-01T18:38:45.926Z,24.90
2018-07-01T18:43:41.953Z,24.80
2018-07-01T18:48:36.741Z,24.60
2018-07-01T18:53:31.681Z,24.50
2018-07-01T18:58:27.916Z,24.50
2018-07-01T19:08:38.951Z,24.40
2018-07-01T19:13:34.187Z,24.30
2018-07-01T19:18:31.451Z,24.20
2018-07-01T19:23:26.367Z,24.10
2018-07-01T19:28:22.092Z,24.00
2018-07-01T19:33:17.300Z,23.80
2018-07-01T19:38:12.539Z,23.70
2018-07-01T19:43:10.017Z,23.70
2018-07-01T19:48:06.195Z,23.40
2018-07-01T19:58:55.173Z,23.20
2018-07-01T20:04:06.864Z,23.00
2018-07-01T20:09:01.976Z,23.00
2018-07-01T20:13:58.149Z,23.00
2018-07-01T20:18:53.320Z,23.10
2018-07-01T20:29:08.328Z,22.90
2018-07-01T20:34:03.136Z,22.60
2018-07-01T20:38:57.824Z,22.50
2018-07-01T20:49:17.758Z,22.50
2018-07-01T20:54:12.854Z,22.30
2018-07-01T20:59:07.719Z,22.20
2018-07-01T21:04:03.030Z,22.10
2018-07-01T21:08:58.706Z,22.10
2018-07-01T21:13:53.640Z,21.90
2018-07-01T21:18:49.172Z,21.80
2018-07-01T21:23:47.481Z,21.80
2018-07-01T21:28:43.003Z,21.80
2018-07-01T21:44:08.147Z,21.30
2018-07-01T21:49:27.984Z,21.10
2018-07-01T21:54:23.353Z,21.10
2018-07-01T21:59:21.954Z,21.00
2018-07-01T22:09:35.544Z,20.90
2018-07-01T22:14:35.016Z,20.90
2018-07-01T22:31:23.941Z,20.50
2018-07-01T22:36:19.463Z,20.50
2018-07-01T22:48:37.268Z,20.40
2018-07-01T22:53:32.578Z,20.30
2018-07-01T23:03:46.488Z,20.10
2018-07-01T23:08:41.673Z,20.10
2018-07-01T23:18:49.112Z,19.80
2018-07-01T23:23:44.455Z,19.60
2018-07-01T23:28:55.173Z,19.60
2018-07-01T23:33:50.228Z,19.60
2018-07-01T23:38:45.367Z,19.40
2018-07-01T23:49:00.191Z,19.10
2018-07-01T23:54:01.428Z,19.20
2018-07-01T23:58:56.626Z,19.00
